Time;durP1;ratioP1;P1;durP2;ratioP2;P2;SDS_P1;SDS_P2;PMS_P1;PMS_P2;Temp;Humidity;BMP_temperature;BMP_pressure;BME280_temperature;BME280_humidity;BME280_pressure;Samples;Min_cycle;Max_cycle;Signal;HPM_P1;HPM_P2
2024/01/11 00:00:10;;;;;;;1286.35;999.90;;;26.60;99.90;;;;;;5056286;28;20165;-67
2024/01/11 00:02:36;;;;;;;1313.35;999.90;;;26.60;99.90;;;;;;5056487;28;20075;-67
2024/01/11 00:05:03;;;;;;;1279.20;999.90;;;26.60;99.90;;;;;;5056402;28;20025;-68
2024/01/11 00:07:29;;;;;;;1301.18;999.90;;;26.60;99.90;;;;;;5056082;28;20044;-69
2024/01/11 00:09:56;;;;;;;1300.47;999.90;;;26.60;99.90;;;;;;5056257;28;20029;-68
2024/01/11 00:12:22;;;;;;;1310.95;999.90;;;26.60;99.90;;;;;;5056078;28;20017;-68
2024/01/11 00:14:49;;;;;;;1274.35;999.90;;;26.50;99.90;;;;;;5055894;28;20059;-67
2024/01/11 00:17:15;;;;;;;1243.70;999.90;;;26.40;99.90;;;;;;5056188;28;20052;-67
2024/01/11 00:19:42;;;;;;;1276.45;999.90;;;26.40;99.90;;;;;;5056554;28;20474;-67
2024/01/11 00:22:08;;;;;;;1249.07;999.90;;;26.30;99.90;;;;;;5055808;28;20039;-68
2024/01/11 00:24:35;;;;;;;1282.05;999.90;;;26.40;99.90;;;;;;5055827;28;20029;-68
2024/01/11 00:27:02;;;;;;;1287.18;999.90;;;26.40;99.90;;;;;;5055777;28;20036;-67
2024/01/11 00:29:28;;;;;;;1256.03;999.90;;;26.40;99.90;;;;;;5055670;28;20062;-67
2024/01/11 00:31:55;;;;;;;1256.60;999.90;;;26.40;99.90;;;;;;5055441;28;20017;-67
2024/01/11 00:34:22;;;;;;;1253.68;999.90;;;26.40;99.90;;;;;;5055626;28;20424;-70
2024/01/11 00:36:48;;;;;;;1277.25;999.90;;;26.40;99.90;;;;;;5055560;28;20021;-70
2024/01/11 00:39:15;;;;;;;1294.47;999.90;;;26.40;99.90;;;;;;5055605;28;20095;-69
2024/01/11 00:41:41;;;;;;;1288.18;999.90;;;26.40;99.90;;;;;;5055517;28;20082;-69
2024/01/11 00:44:08;;;;;;;1250.00;999.90;;;26.40;99.90;;;;;;5055455;28;20044;-69
2024/01/11 00:46:35;;;;;;;1291.90;999.90;;;26.40;99.90;;;;;;5055598;28;20432;-69
2024/01/11 00:49:02;;;;;;;1242.78;999.90;;;26.50;99.90;;;;;;5055295;28;20402;-69
2024/01/11 00:51:28;;;;;;;1289.90;999.90;;;26.40;99.90;;;;;;5055237;28;20036;-69
2024/01/11 00:53:55;;;;;;;1268.72;999.90;;;26.40;99.90;;;;;;5054488;28;20021;-70
2024/01/11 00:56:22;;;;;;;1288.60;999.90;;;26.40;99.90;;;;;;5055274;28;20474;-69
2024/01/11 00:58:48;;;;;;;1266.82;999.90;;;26.40;99.90;;;;;;5055136;28;20029;-68
2024/01/11 01:01:15;;;;;;;1301.10;999.90;;;26.50;99.90;;;;;;5055190;28;20025;-69
2024/01/11 01:03:41;;;;;;;1301.82;999.90;;;26.50;99.90;;;;;;5055211;28;20025;-70
2024/01/11 01:06:08;;;;;;;1286.90;999.90;;;26.60;99.90;;;;;;5055203;28;20540;-69
2024/01/11 01:08:34;;;;;;;1255.53;999.90;;;26.70;99.90;;;;;;5055032;28;20033;-70
2024/01/11 01:11:01;;;;;;;1293.55;999.90;;;26.70;99.90;;;;;;5054989;28;20028;-70
2024/01/11 01:13:27;;;;;;;1299.65;999.90;;;26.70;99.90;;;;;;5054962;28;20039;-70
2024/01/11 01:15:54;;;;;;;1285.65;999.90;;;26.80;99.90;;;;;;5054799;28;20017;-70
2024/01/11 01:18:21;;;;;;;1271.10;999.90;;;26.70;99.90;;;;;;5055128;28;20082;-69
2024/01/11 01:20:47;;;;;;;1269.22;999.90;;;26.80;99.90;;;;;;5055020;28;20384;-68
2024/01/11 01:23:14;;;;;;;1258.18;999.90;;;26.80;99.90;;;;;;5043219;28;20029;-68
2024/01/11 01:25:41;;;;;;;1290.70;999.90;;;26.80;99.90;;;;;;5045845;28;20034;-68
2024/01/11 01:28:07;;;;;;;1276.18;999.90;;;26.90;99.90;;;;;;5037663;28;20022;-68
2024/01/11 01:30:34;;;;;;;1270.32;999.90;;;26.90;99.90;;;;;;5053200;28;20104;-67
2024/01/11 01:33:00;;;;;;;1276.53;999.90;;;26.90;99.90;;;;;;5054592;28;20048;-69
2024/01/11 01:35:27;;;;;;;1304.82;999.90;;;26.90;99.90;;;;;;5054654;28;20043;-68
2024/01/11 01:37:53;;;;;;;1270.75;999.90;;;26.90;99.90;;;;;;5034614;28;20022;-68
2024/01/11 01:40:20;;;;;;;1304.72;999.90;;;27.00;99.90;;;;;;5034681;28;20071;-69
2024/01/11 01:42:46;;;;;;;1264.93;999.90;;;26.90;99.90;;;;;;5034640;28;20033;-69
2024/01/11 01:45:15;;;;;;;1295.07;999.90;;;27.00;99.90;;;;;;5034243;28;20041;-68
2024/01/11 01:47:42;;;;;;;1312.93;999.90;;;27.00;99.90;;;;;;5034391;28;20395;-69
2024/01/11 01:50:11;;;;;;;1301.70;999.90;;;27.10;99.90;;;;;;5034142;28;20049;-68
2024/01/11 01:52:39;;;;;;;1309.20;999.90;;;27.00;99.90;;;;;;5034264;28;20096;-68
2024/01/11 01:55:09;;;;;;;1310.07;999.90;;;27.10;99.90;;;;;;5049211;28;20428;-68
2024/01/11 01:57:35;;;;;;;1319.13;999.90;;;27.10;99.90;;;;;;5054283;28;20033;-69
2024/01/11 02:00:03;;;;;;;1306.43;999.90;;;27.10;99.90;;;;;;5054307;28;20086;-69
2024/01/11 02:02:31;;;;;;;1303.95;999.90;;;27.10;99.90;;;;;;5054232;28;20440;-69
2024/01/11 02:04:58;;;;;;;1290.15;999.90;;;27.10;99.90;;;;;;5053915;28;20021;-68
2024/01/11 02:07:25;;;;;;;1253.53;999.90;;;27.10;99.90;;;;;;5054042;28;20108;-69
2024/01/11 02:09:52;;;;;;;1285.35;999.90;;;27.10;99.90;;;;;;5053958;28;20024;-69
2024/01/11 02:12:20;;;;;;;1294.70;999.90;;;27.10;99.90;;;;;;5053972;28;20021;-68
2024/01/11 02:14:47;;;;;;;1290.47;999.90;;;27.10;99.90;;;;;;5053848;28;20525;-69
2024/01/11 02:17:13;;;;;;;1291.97;999.90;;;27.10;99.90;;;;;;5053750;28;20108;-69
2024/01/11 02:19:40;;;;;;;1306.72;999.90;;;27.20;99.90;;;;;;5053724;28;20120;-68
2024/01/11 02:22:16;;;;;;;1300.32;999.90;;;27.20;99.90;;;;;;5053679;28;20052;-69
2024/01/11 02:24:42;;;;;;;1280.63;999.90;;;27.20;99.90;;;;;;5053625;28;20078;-69
2024/01/11 02:27:10;;;;;;;1286.20;999.90;;;27.10;99.90;;;;;;5053629;28;20112;-68
2024/01/11 02:29:37;;;;;;;1311.57;999.90;;;27.00;99.90;;;;;;5053901;28;20079;-68
2024/01/11 02:32:05;;;;;;;1298.80;999.90;;;27.10;99.90;;;;;;5053934;28;20017;-68
2024/01/11 02:34:33;;;;;;;1310.95;999.90;;;27.10;99.90;;;;;;5054431;28;20032;-68
2024/01/11 02:37:00;;;;;;;1312.43;999.90;;;27.00;99.90;;;;;;5054293;28;20021;-68
2024/01/11 02:39:27;;;;;;;1264.20;999.90;;;27.00;99.90;;;;;;5054766;28;20021;-68
2024/01/11 02:41:57;;;;;;;1289.43;999.90;;;27.10;99.90;;;;;;5054422;28;20048;-68
2024/01/11 02:44:24;;;;;;;1284.43;999.90;;;27.00;99.90;;;;;;5054518;28;20072;-68
2024/01/11 02:46:50;;;;;;;1286.07;999.90;;;27.00;99.90;;;;;;5047546;28;20021;-68
2024/01/11 02:49:17;;;;;;;1288.75;999.90;;;27.00;99.90;;;;;;5034602;28;20045;-67
2024/01/11 02:51:43;;;;;;;1281.25;999.90;;;27.10;99.90;;;;;;5041434;28;20025;-68
2024/01/11 02:54:10;;;;;;;1282.55;999.90;;;27.10;99.90;;;;;;5054541;28;20017;-68
2024/01/11 02:56:36;;;;;;;1260.35;999.90;;;27.10;99.90;;;;;;5053871;28;20355;-68
2024/01/11 02:59:03;;;;;;;1255.90;999.90;;;27.10;99.90;;;;;;5053325;28;20090;-68
2024/01/11 03:01:29;;;;;;;1298.00;999.90;;;27.20;99.90;;;;;;5053789;28;20382;-68
2024/01/11 03:03:57;;;;;;;1296.70;999.90;;;27.20;99.90;;;;;;5053550;28;20025;-68
2024/01/11 03:06:24;;;;;;;1270.22;999.90;;;27.20;99.90;;;;;;5052169;28;20032;-68
2024/01/11 03:08:50;;;;;;;1296.00;999.90;;;27.20;99.90;;;;;;5052576;28;20021;-68
2024/01/11 03:11:17;;;;;;;1313.70;999.90;;;27.20;99.90;;;;;;5045631;28;20056;-68
2024/01/11 03:13:43;;;;;;;1318.32;999.90;;;27.30;99.90;;;;;;5033296;28;20014;-68
2024/01/11 03:16:10;;;;;;;1288.90;999.90;;;27.30;99.90;;;;;;5034578;28;20029;-68
2024/01/11 03:18:37;;;;;;;1315.78;999.90;;;27.30;99.90;;;;;;5037248;28;20017;-69
2024/01/11 03:21:03;;;;;;;1292.53;999.90;;;27.30;99.90;;;;;;5037078;28;20021;-68
2024/01/11 03:23:30;;;;;;;1317.50;999.90;;;27.20;99.90;;;;;;5037431;28;20018;-68
2024/01/11 03:25:56;;;;;;;1295.05;999.90;;;27.20;99.90;;;;;;5037082;28;20390;-66
2024/01/11 03:28:23;;;;;;;1285.68;999.90;;;27.20;99.90;;;;;;5037030;28;20079;-68
2024/01/11 03:30:49;;;;;;;1266.63;999.90;;;27.20;99.90;;;;;;5037016;28;20021;-70
2024/01/11 03:33:16;;;;;;;1244.40;999.90;;;27.20;99.90;;;;;;5036817;28;20099;-69
2024/01/11 03:35:43;;;;;;;1276.05;999.90;;;27.30;99.90;;;;;;5036595;28;20021;-69
2024/01/11 03:38:10;;;;;;;1287.10;999.90;;;27.40;99.90;;;;;;5036816;28;20030;-69
2024/01/11 03:40:37;;;;;;;1241.40;999.90;;;27.40;99.90;;;;;;5036755;28;20021;-69
2024/01/11 03:43:03;;;;;;;1287.90;999.90;;;27.40;99.90;;;;;;5036344;28;20112;-69
2024/01/11 03:45:30;;;;;;;1299.38;999.90;;;27.40;99.90;;;;;;5036515;28;20033;-69
2024/01/11 03:47:56;;;;;;;1313.10;999.90;;;27.50;99.90;;;;;;5035750;28;20056;-70
2024/01/11 03:50:23;;;;;;;1306.22;999.90;;;27.50;99.90;;;;;;5035663;28;20133;-69
2024/01/11 03:52:49;;;;;;;1290.35;999.90;;;27.50;99.90;;;;;;5036403;28;20018;-69
2024/01/11 03:55:16;;;;;;;1281.85;999.90;;;27.60;99.90;;;;;;5036359;28;20444;-69
2024/01/11 03:57:44;;;;;;;1313.47;999.90;;;27.60;99.90;;;;;;5036370;28;20017;-69
2024/01/11 04:00:11;;;;;;;1305.32;999.90;;;27.60;99.90;;;;;;5036392;28;20029;-69
2024/01/11 04:02:37;;;;;;;1304.82;999.90;;;27.70;99.90;;;;;;5036293;28;20022;-69
2024/01/11 04:05:04;;;;;;;1318.47;999.90;;;27.70;99.90;;;;;;5036207;28;20498;-69
2024/01/11 04:07:31;;;;;;;1318.32;999.90;;;27.70;99.90;;;;;;5038432;28;20045;-67
2024/01/11 04:09:57;;;;;;;1313.95;999.90;;;27.70;99.90;;;;;;5049874;28;20021;-66
2024/01/11 04:12:24;;;;;;;1317.55;999.90;;;27.70;99.90;;;;;;5055850;28;20021;-67
2024/01/11 04:14:51;;;;;;;1295.07;999.90;;;27.80;99.90;;;;;;5055367;28;20032;-65
2024/01/11 04:17:17;;;;;;;1313.43;999.90;;;27.80;99.90;;;;;;5055454;28;20013;-66
2024/01/11 04:19:44;;;;;;;1322.80;999.90;;;27.80;99.90;;;;;;5055413;28;20025;-66
2024/01/11 04:22:10;;;;;;;1312.20;999.90;;;27.80;99.90;;;;;;5054520;28;20504;-68
2024/01/11 04:24:37;;;;;;;1312.85;999.90;;;27.90;99.90;;;;;;5055456;28;20538;-69
2024/01/11 04:27:03;;;;;;;1314.00;999.90;;;28.00;99.90;;;;;;5054856;28;20421;-68
2024/01/11 04:29:30;;;;;;;1309.78;999.90;;;28.00;99.90;;;;;;5055186;28;20088;-70
2024/01/11 04:31:58;;;;;;;1285.25;999.90;;;28.00;99.90;;;;;;5055240;28;20025;-67
2024/01/11 04:34:24;;;;;;;1324.03;999.90;;;28.00;99.90;;;;;;5054235;28;20024;-68
2024/01/11 04:36:51;;;;;;;1310.88;999.90;;;28.10;99.90;;;;;;5055100;28;20083;-68
2024/01/11 04:39:17;;;;;;;1285.15;999.90;;;28.10;99.90;;;;;;5051279;28;20482;-68
2024/01/11 04:41:44;;;;;;;1318.35;999.90;;;28.20;99.90;;;;;;5055832;28;20378;-67
2024/01/11 04:44:11;;;;;;;1315.43;999.90;;;28.20;99.90;;;;;;5055334;28;20025;-68
2024/01/11 04:46:37;;;;;;;1324.03;999.90;;;28.30;99.90;;;;;;5055385;28;20025;-67
2024/01/11 04:49:04;;;;;;;1317.72;999.90;;;28.30;99.90;;;;;;5055273;28;20394;-67
2024/01/11 04:51:30;;;;;;;1313.95;999.90;;;28.30;99.90;;;;;;5055127;28;20025;-67
2024/01/11 04:53:57;;;;;;;1318.78;999.90;;;28.30;99.90;;;;;;5054697;28;20188;-69
2024/01/11 04:56:24;;;;;;;1320.05;999.90;;;28.30;99.90;;;;;;5053587;28;20378;-69
2024/01/11 04:58:50;;;;;;;1326.00;999.90;;;28.30;99.90;;;;;;5054409;28;20474;-68
2024/01/11 05:01:18;;;;;;;1330.38;999.90;;;28.40;99.90;;;;;;5054347;28;20036;-69
2024/01/11 05:03:46;;;;;;;1328.43;999.90;;;28.50;99.90;;;;;;5054377;28;20055;-69
2024/01/11 05:06:24;;;;;;;1320.90;999.90;;;28.60;99.90;;;;;;5053499;28;20063;-68
2024/01/11 05:08:53;;;;;;;1284.55;999.90;;;28.60;99.90;;;;;;5053183;28;20020;-70
2024/01/11 05:11:24;;;;;;;1329.47;999.90;;;28.70;99.90;;;;;;5052965;28;20024;-68
2024/01/11 05:13:51;;;;;;;1320.72;999.90;;;28.80;99.90;;;;;;5052293;28;20017;-68
2024/01/11 05:16:29;;;;;;;1327.35;999.90;;;28.90;99.90;;;;;;5054299;28;20028;-67
2024/01/11 05:18:57;;;;;;;1328.43;999.90;;;28.90;99.90;;;;;;5053914;28;20040;-69
2024/01/11 05:21:24;;;;;;;1330.32;999.90;;;29.00;99.90;;;;;;5051127;28;20445;-66
2024/01/11 05:23:51;;;;;;;1301.00;999.90;;;29.10;99.90;;;;;;5051955;28;20052;-66
2024/01/11 05:26:18;;;;;;;1313.57;999.90;;;29.20;99.90;;;;;;5053310;28;20403;-66
2024/01/11 05:28:45;;;;;;;1305.15;999.90;;;29.30;99.90;;;;;;5053478;28;20105;-67
2024/01/11 05:31:13;;;;;;;1330.18;999.90;;;29.40;99.90;;;;;;5053429;28;20078;-66
2024/01/11 05:33:40;;;;;;;1323.60;999.90;;;29.40;99.90;;;;;;5051555;28;20070;-65
2024/01/11 05:36:07;;;;;;;1335.75;999.90;;;29.50;99.90;;;;;;5054227;28;20025;-64
2024/01/11 05:38:35;;;;;;;1337.63;999.90;;;29.40;99.90;;;;;;5048938;28;20025;-70
2024/01/11 05:41:02;;;;;;;1277.57;999.90;;;29.50;99.90;;;;;;5051143;28;20029;-65
2024/01/11 05:43:28;;;;;;;1336.63;999.90;;;29.50;99.90;;;;;;5054105;28;20017;-67
2024/01/11 05:45:55;;;;;;;1325.18;999.90;;;29.60;99.90;;;;;;5053971;28;20467;-66
2024/01/11 05:48:21;;;;;;;1313.57;999.90;;;29.70;99.90;;;;;;5053208;28;20028;-66
2024/01/11 05:50:48;;;;;;;1344.18;999.90;;;29.80;99.90;;;;;;5053782;28;20021;-68
2024/01/11 05:53:14;;;;;;;1339.55;999.90;;;29.90;99.90;;;;;;5053706;28;20379;-69
2024/01/11 05:55:41;;;;;;;1288.32;999.90;;;29.80;99.90;;;;;;5053580;28;20062;-70
2024/01/11 05:58:07;;;;;;;1314.55;999.90;;;29.70;99.90;;;;;;5053765;28;20108;-70
2024/01/11 06:00:34;;;;;;;1349.50;999.90;;;29.80;99.90;;;;;;5053763;28;20032;-69
2024/01/11 06:03:01;;;;;;;1344.13;999.90;;;29.80;99.90;;;;;;5053738;28;20020;-70
2024/01/11 06:05:27;;;;;;;1302.50;999.90;;;29.90;99.90;;;;;;5051790;28;20441;-70
2024/01/11 06:07:54;;;;;;;1343.82;999.90;;;30.00;99.90;;;;;;5053188;28;20025;-68
2024/01/11 06:10:21;;;;;;;1312.47;999.90;;;29.90;99.90;;;;;;5052952;28;20066;-68
2024/01/11 06:12:47;;;;;;;1341.63;999.90;;;29.90;99.90;;;;;;5051679;28;20401;-69
2024/01/11 06:15:13;;;;;;;1345.15;999.90;;;30.00;99.90;;;;;;5053043;28;20466;-66
2024/01/11 06:17:40;;;;;;;1318.10;999.90;;;30.10;99.90;;;;;;5053057;28;20039;-67
2024/01/11 06:20:07;;;;;;;1344.57;999.90;;;30.10;99.90;;;;;;5051352;28;20020;-67
2024/01/11 06:22:33;;;;;;;1349.53;999.90;;;30.10;99.90;;;;;;5053187;28;20030;-70
2024/01/11 06:25:00;;;;;;;1347.57;999.90;;;30.20;99.90;;;;;;5053105;28;20378;-71
2024/01/11 06:27:26;;;;;;;1341.72;999.90;;;30.30;99.90;;;;;;5053016;28;20048;-72
2024/01/11 06:29:53;;;;;;;1333.57;999.90;;;30.40;99.90;;;;;;5051253;28;20044;-71
2024/01/11 06:32:19;;;;;;;1368.63;999.90;;;30.40;99.90;;;;;;5050559;28;20070;-70
2024/01/11 06:34:47;;;;;;;1364.97;999.90;;;30.40;99.90;;;;;;5051564;28;20021;-70
2024/01/11 06:37:13;;;;;;;1348.75;999.90;;;30.40;99.90;;;;;;5052729;28;20025;-70
2024/01/11 06:39:40;;;;;;;1324.22;999.90;;;30.40;99.90;;;;;;5052967;28;20480;-72
2024/01/11 06:42:07;;;;;;;1370.05;999.90;;;30.40;99.90;;;;;;5052317;28;20021;-70
2024/01/11 06:44:33;;;;;;;1354.70;999.90;;;30.40;99.90;;;;;;5048353;28;20029;-69
2024/01/11 06:47:01;;;;;;;1349.80;999.90;;;30.40;99.90;;;;;;5049199;28;20067;-71
2024/01/11 06:49:28;;;;;;;1351.55;999.90;;;30.40;99.90;;;;;;5051802;28;20506;-70
2024/01/11 06:51:55;;;;;;;1330.32;999.90;;;30.40;99.90;;;;;;5051209;28;20462;-67
2024/01/11 06:54:21;;;;;;;1361.38;999.90;;;30.40;99.90;;;;;;5052082;28;20092;-69
2024/01/11 06:56:48;;;;;;;1355.68;999.90;;;30.40;99.90;;;;;;5052080;28;20474;-69
2024/01/11 06:59:15;;;;;;;1350.32;999.90;;;30.40;99.90;;;;;;5051857;28;20032;-67
2024/01/11 07:01:41;;;;;;;1346.35;999.90;;;30.40;99.90;;;;;;5052421;28;20425;-67
2024/01/11 07:04:08;;;;;;;1347.72;999.90;;;30.40;99.90;;;;;;5052160;28;20052;-69
2024/01/11 07:06:34;;;;;;;1354.72;999.90;;;30.40;99.90;;;;;;5053048;28;20017;-66
2024/01/11 07:09:01;;;;;;;1299.40;999.90;;;30.50;99.90;;;;;;5052934;28;20029;-67
2024/01/11 07:11:27;;;;;;;1295.40;999.90;;;30.50;99.90;;;;;;5052756;28;20444;-67
2024/01/11 07:13:54;;;;;;;1339.82;999.90;;;30.50;99.90;;;;;;5049092;28;20017;-67
2024/01/11 07:16:20;;;;;;;1355.00;999.90;;;30.60;99.90;;;;;;5050606;28;20025;-66
2024/01/11 07:18:47;;;;;;;1349.70;999.90;;;30.60;99.90;;;;;;5052618;28;20347;-68
2024/01/11 07:21:13;;;;;;;1317.13;999.90;;;30.60;99.90;;;;;;5052767;28;20108;-64
2024/01/11 07:23:40;;;;;;;1319.10;999.90;;;30.60;99.90;;;;;;5049809;28;20029;-66
2024/01/11 07:26:06;;;;;;;1358.72;999.90;;;30.60;99.90;;;;;;5052695;28;20048;-66
2024/01/11 07:28:33;;;;;;;1359.55;999.90;;;30.60;99.90;;;;;;5052693;28;20111;-66
2024/01/11 07:30:59;;;;;;;1312.88;999.90;;;30.60;99.90;;;;;;5052600;28;20104;-69
2024/01/11 07:33:26;;;;;;;1335.07;999.90;;;30.60;99.90;;;;;;5051420;28;20018;-67
2024/01/11 07:35:52;;;;;;;1353.43;999.90;;;30.60;99.90;;;;;;5044480;28;20586;-69
2024/01/11 07:38:19;;;;;;;1355.45;999.90;;;30.70;99.90;;;;;;5032329;28;20483;-67
2024/01/11 07:40:46;;;;;;;1364.80;999.90;;;30.60;99.90;;;;;;5038697;28;20024;-69
2024/01/11 07:43:13;;;;;;;1338.30;999.90;;;30.70;99.90;;;;;;5052165;28;20029;-69
2024/01/11 07:45:40;;;;;;;1364.05;999.90;;;30.70;99.90;;;;;;5052269;28;20088;-69
2024/01/11 07:48:07;;;;;;;1357.57;999.90;;;30.60;99.90;;;;;;5052414;28;20152;-69
2024/01/11 07:50:35;;;;;;;1357.90;999.90;;;30.70;99.90;;;;;;5051899;28;20045;-69
2024/01/11 07:53:01;;;;;;;1361.03;999.90;;;30.70;99.90;;;;;;5049576;28;20397;-66
2024/01/11 07:55:28;;;;;;;1335.18;999.90;;;30.60;99.90;;;;;;5052323;28;20102;-67
2024/01/11 07:57:54;;;;;;;1337.45;999.90;;;30.70;99.90;;;;;;5052153;28;20378;-67
2024/01/11 08:00:21;;;;;;;1353.35;999.90;;;30.60;99.90;;;;;;5049596;28;20032;-66
2024/01/11 08:02:48;;;;;;;1357.13;999.90;;;30.70;99.90;;;;;;5052737;28;20036;-67
2024/01/11 08:05:14;;;;;;;1324.85;999.90;;;30.70;99.90;;;;;;5055219;28;20539;-67
2024/01/11 08:07:42;;;;;;;1324.68;999.90;;;30.70;99.90;;;;;;5055967;28;20447;-67
2024/01/11 08:10:09;;;;;;;1358.55;999.90;;;30.70;99.90;;;;;;5055742;28;20025;-67
2024/01/11 08:12:37;;;;;;;1358.88;999.90;;;30.70;99.90;;;;;;5055564;28;20025;-72
2024/01/11 08:15:04;;;;;;;1351.60;999.90;;;30.80;99.90;;;;;;5053297;28;20043;-68
2024/01/11 08:17:30;;;;;;;1329.55;999.90;;;30.80;99.90;;;;;;5055603;28;20013;-73
2024/01/11 08:19:57;;;;;;;1360.60;999.90;;;30.80;99.90;;;;;;5055444;28;20064;-67
2024/01/11 08:22:24;;;;;;;1364.93;999.90;;;30.80;99.90;;;;;;5055511;28;20020;-68
2024/01/11 08:24:51;;;;;;;1352.38;999.90;;;30.80;99.90;;;;;;5055559;28;20377;-68
2024/01/11 08:27:17;;;;;;;1368.57;999.90;;;30.90;99.90;;;;;;5055297;28;20017;-67
2024/01/11 08:29:46;;;;;;;1356.13;999.90;;;30.90;99.90;;;;;;5055427;28;20043;-69
2024/01/11 08:32:13;;;;;;;1361.78;999.90;;;30.90;99.90;;;;;;5055313;28;20032;-68
2024/01/11 08:34:39;;;;;;;1358.63;999.90;;;30.90;99.90;;;;;;5055242;28;20017;-68
2024/01/11 08:37:06;;;;;;;1362.80;999.90;;;31.00;99.90;;;;;;5055386;28;20070;-67
2024/01/11 08:39:33;;;;;;;1366.72;999.90;;;31.00;99.90;;;;;;5055263;28;20438;-68
2024/01/11 08:42:00;;;;;;;1357.63;999.90;;;31.10;99.90;;;;;;5055021;28;20013;-69
2024/01/11 08:44:26;;;;;;;1350.93;999.90;;;31.20;99.90;;;;;;5055207;28;20063;-69
2024/01/11 08:46:53;;;;;;;1360.50;999.90;;;31.20;99.90;;;;;;5055236;28;20013;-68
2024/01/11 08:49:19;;;;;;;1342.53;999.90;;;31.00;99.90;;;;;;5054785;28;20044;-69
2024/01/11 08:51:47;;;;;;;1343.40;999.90;;;31.10;99.90;;;;;;5053787;28;20382;-68
2024/01/11 08:54:16;;;;;;;1362.22;999.90;;;31.00;99.90;;;;;;5055017;28;20441;-68
2024/01/11 08:56:43;;;;;;;1360.70;999.90;;;31.00;99.90;;;;;;5052206;28;20044;-68
2024/01/11 08:59:09;;;;;;;1365.35;999.90;;;30.90;99.90;;;;;;5054874;28;20029;-68
2024/01/11 09:01:37;;;;;;;1347.32;999.90;;;30.90;99.90;;;;;;5054797;28;20044;-70
2024/01/11 09:04:05;;;;;;;1387.03;999.90;;;30.90;99.90;;;;;;5052186;28;20028;-69
2024/01/11 09:06:33;;;;;;;1381.82;999.90;;;30.90;99.90;;;;;;5054751;28;20017;-69
2024/01/11 09:09:00;;;;;;;1400.15;999.90;;;30.90;99.90;;;;;;5054666;28;20017;-70
2024/01/11 09:11:26;;;;;;;1408.63;999.90;;;30.90;99.90;;;;;;5054426;28;20050;-68
2024/01/11 09:13:53;;;;;;;1420.03;999.90;;;30.90;99.90;;;;;;5053742;28;20021;-69
2024/01/11 09:16:19;;;;;;;1432.22;999.90;;;30.80;99.90;;;;;;5054453;28;20021;-70
2024/01/11 09:18:47;;;;;;;1501.68;999.90;;;30.80;99.90;;;;;;5054394;28;20024;-68
2024/01/11 09:21:13;;;;;;;1479.78;999.90;;;30.90;99.90;;;;;;5054495;28;20052;-65
2024/01/11 09:23:40;;;;;;;1481.55;999.90;;;30.90;99.90;;;;;;5051692;28;20021;-65
2024/01/11 09:26:06;;;;;;;1497.63;999.90;;;30.90;99.90;;;;;;5052183;28;20023;-70
2024/01/11 09:28:33;;;;;;;1408.57;999.90;;;31.00;99.90;;;;;;5054136;28;20474;-70
2024/01/11 09:30:59;;;;;;;1521.40;999.90;;;30.90;99.90;;;;;;5053799;28;20032;-68
2024/01/11 09:33:27;;;;;;;1509.78;999.90;;;30.90;99.90;;;;;;5050916;28;20049;-69
2024/01/11 09:35:55;;;;;;;1548.85;999.90;;;30.80;99.90;;;;;;5051341;28;20108;-68
2024/01/11 09:38:22;;;;;;;1500.22;999.90;;;30.80;99.90;;;;;;5053589;28;20469;-67
2024/01/11 09:41:07;;;;;;;1429.65;999.90;;;30.90;99.90;;;;;;5052266;28;20112;-67
2024/01/11 09:43:38;;;;;;;1443.70;999.90;;;30.90;99.90;;;;;;5051383;28;20059;-68
2024/01/11 09:46:05;;;;;;;1351.37;999.90;;;30.90;99.90;;;;;;5053689;28;20482;-69
2024/01/11 09:48:35;;;;;;;1417.15;999.90;;;30.90;99.90;;;;;;5053546;28;20823;-68
2024/01/11 09:51:08;;;;;;;1457.43;999.90;;;30.80;99.90;;;;;;5053058;28;20049;-69
2024/01/11 09:53:36;;;;;;;1480.25;999.90;;;30.80;99.90;;;;;;5053415;28;20044;-67
2024/01/11 09:56:05;;;;;;;1509.45;999.90;;;30.80;99.90;;;;;;5053426;28;20055;-69
2024/01/11 09:58:36;;;;;;;1532.68;999.90;;;30.80;99.90;;;;;;5053744;28;20009;-68
2024/01/11 10:01:07;;;;;;;1554.60;999.90;;;30.80;99.90;;;;;;5050911;28;20033;-66
2024/01/11 10:03:34;;;;;;;1565.78;999.90;;;30.90;99.90;;;;;;5053759;28;20027;-68
2024/01/11 10:06:03;;;;;;;1562.35;999.90;;;30.90;99.90;;;;;;5053613;28;20537;-70
2024/01/11 10:08:30;;;;;;;1568.38;999.90;;;30.90;99.90;;;;;;5052373;28;20036;-70
2024/01/11 10:10:57;;;;;;;1551.50;999.90;;;30.90;99.90;;;;;;5052948;28;20375;-70
2024/01/11 10:13:32;;;;;;;1504.97;999.90;;;30.90;99.90;;;;;;5053190;28;20013;-67
2024/01/11 10:16:13;;;;;;;1503.90;999.90;;;30.90;99.90;;;;;;5052762;28;20123;-68
2024/01/11 10:18:42;;;;;;;1570.97;999.90;;;30.90;99.90;;;;;;5052672;28;20230;-69
2024/01/11 10:21:09;;;;;;;1516.65;999.90;;;30.90;99.90;;;;;;5052915;28;20484;-68
2024/01/11 10:23:40;;;;;;;1522.13;999.90;;;30.80;99.90;;;;;;5053048;28;20013;-68
2024/01/11 10:26:08;;;;;;;1562.93;999.90;;;30.80;99.90;;;;;;5051542;28;20038;-66
2024/01/11 10:28:37;;;;;;;1579.43;999.90;;;30.70;99.90;;;;;;5053125;28;20024;-68
2024/01/11 10:31:07;;;;;;;1586.22;999.90;;;30.70;99.90;;;;;;5049804;28;20490;-69
2024/01/11 10:33:35;;;;;;;1520.05;999.90;;;30.60;99.90;;;;;;5049364;28;20021;-69
2024/01/11 10:36:04;;;;;;;1528.80;999.90;;;30.60;99.90;;;;;;5053475;28;20029;-70
2024/01/11 10:38:35;;;;;;;1582.40;999.90;;;30.50;99.90;;;;;;5053124;28;20021;-69
2024/01/11 10:41:06;;;;;;;1576.88;999.90;;;30.50;99.90;;;;;;5052650;28;20057;-71
2024/01/11 10:43:36;;;;;;;1505.35;999.90;;;30.30;99.90;;;;;;5051402;28;20456;-69
2024/01/11 10:46:06;;;;;;;1510.03;999.90;;;30.20;99.90;;;;;;5052353;28;20017;-69
2024/01/11 10:48:40;;;;;;;1584.10;999.90;;;30.00;99.90;;;;;;5051006;28;20020;-70
2024/01/11 10:51:12;;;;;;;1596.22;999.90;;;29.80;99.90;;;;;;5050414;28;20080;-69
2024/01/11 10:53:50;;;;;;;1590.47;999.90;;;29.80;99.90;;;;;;5051895;28;20020;-69
2024/01/11 10:56:17;;;;;;;1565.63;999.90;;;29.70;99.90;;;;;;5052193;28;20013;-69
2024/01/11 10:58:46;;;;;;;1602.93;999.90;;;29.50;99.90;;;;;;5050409;28;20025;-72
2024/01/11 11:01:14;;;;;;;1594.50;999.90;;;29.40;99.90;;;;;;5051015;28;20052;-69
2024/01/11 11:03:44;;;;;;;1592.47;999.90;;;29.40;99.90;;;;;;5050496;28;20078;-69
2024/01/11 11:06:12;;;;;;;1531.05;999.90;;;29.40;99.90;;;;;;5052257;28;20040;-70
2024/01/11 11:08:39;;;;;;;1573.07;999.90;;;29.40;99.90;;;;;;5051721;28;20023;-71
2024/01/11 11:11:07;;;;;;;1575.53;999.90;;;29.30;99.90;;;;;;5049872;28;20028;-70
2024/01/11 11:13:35;;;;;;;1536.57;999.90;;;29.20;99.90;;;;;;5051333;28;20066;-71
2024/01/11 11:16:04;;;;;;;1590.82;999.90;;;29.30;99.90;;;;;;5051005;28;20060;-66
2024/01/11 11:18:34;;;;;;;1576.70;999.90;;;29.30;99.90;;;;;;5049017;28;20466;-65
2024/01/11 11:21:06;;;;;;;1573.93;999.90;;;29.30;99.90;;;;;;5048783;28;20072;-66
2024/01/11 11:23:33;;;;;;;1572.43;999.90;;;29.20;99.90;;;;;;5046690;28;20067;-67
2024/01/11 11:26:00;;;;;;;1537.60;999.90;;;29.20;99.90;;;;;;5033836;28;20394;-66
2024/01/11 11:28:27;;;;;;;1461.05;999.90;;;29.20;99.90;;;;;;5049131;28;20040;-65
2024/01/11 11:30:55;;;;;;;1581.15;999.90;;;29.10;99.90;;;;;;5039777;28;20108;-67
2024/01/11 11:33:24;;;;;;;1584.55;999.90;;;29.10;99.90;;;;;;5032891;28;20032;-67
2024/01/11 11:35:57;;;;;;;1556.03;999.90;;;29.10;99.90;;;;;;5032905;28;20040;-66
2024/01/11 11:38:28;;;;;;;1582.53;999.90;;;29.10;99.90;;;;;;5036052;28;20430;-66
2024/01/11 11:40:57;;;;;;;1565.03;999.90;;;29.10;99.90;;;;;;5036952;28;20053;-65
2024/01/11 11:43:24;;;;;;;1586.38;999.90;;;29.10;99.90;;;;;;5036737;28;20034;-66
2024/01/11 11:45:52;;;;;;;1590.57;999.90;;;29.10;99.90;;;;;;5037028;28;20112;-67
2024/01/11 11:48:29;;;;;;;1582.68;999.90;;;29.00;99.90;;;;;;5040352;28;20033;-66
2024/01/11 11:51:07;;;;;;;1588.88;999.90;;;29.00;99.90;;;;;;5053845;28;20045;-68
2024/01/11 11:53:35;;;;;;;1608.45;999.90;;;29.00;99.90;;;;;;5055710;28;20021;-66
2024/01/11 11:56:03;;;;;;;1534.75;999.90;;;29.00;99.90;;;;;;5053395;28;20017;-67
2024/01/11 11:58:30;;;;;;;1618.13;999.90;;;29.00;99.90;;;;;;5056007;28;20031;-66